Time;durP1;ratioP1;P1;durP2;ratioP2;P2;SDS_P1;SDS_P2;PMS_P1;PMS_P2;Temp;Humidity;BMP_temperature;BMP_pressure;BME280_temperature;BME280_humidity;BME280_pressure;Samples;Min_cycle;Max_cycle;Signal;HPM_P1;HPM_P2
2021/07/14 00:00:45;;;;;;;17.90;15.48;;;;;;;20.21;85.90;100303.38;5062176;28;20025;-67
2021/07/14 00:03:10;;;;;;;17.73;15.50;;;;;;;20.19;86.06;100305.25;5063504;28;20347;-67
2021/07/14 00:05:38;;;;;;;20.45;15.48;;;;;;;20.20;85.93;100306.94;5062054;28;20029;-66
2021/07/14 00:08:03;;;;;;;19.10;15.82;;;;;;;20.21;85.98;100294.63;5063414;28;20024;-67
2021/07/14 00:10:32;;;;;;;20.23;14.65;;;;;;;20.21;86.35;100300.75;5063437;28;20023;-67
2021/07/14 00:13:10;;;;;;;22.98;15.65;;;;;;;20.25;86.49;100302.31;5061823;28;20610;-68
2021/07/14 00:23:31;;;;;;;21.15;18.10;;;;;;;20.24;86.83;100299.75;5063126;28;20036;-68
2021/07/14 00:25:56;;;;;;;21.58;17.85;;;;;;;20.26;86.51;100309.28;5063087;28;20427;-67
2021/07/14 00:28:22;;;;;;;22.50;19.02;;;;;;;20.27;86.99;100310.97;5063306;28;20128;-68
2021/07/14 00:30:59;;;;;;;23.05;19.77;;;;;;;20.26;87.17;100297.88;5063548;28;20449;-68
2021/07/14 00:33:26;;;;;;;24.48;19.40;;;;;;;20.27;87.29;100305.69;5063536;28;20021;-68
2021/07/14 00:35:52;;;;;;;25.80;20.98;;;;;;;20.28;87.40;100304.78;5063070;28;20428;-67
2021/07/14 00:38:17;;;;;;;29.40;20.38;;;;;;;20.28;87.38;100311.84;5063321;28;20390;-68
2021/07/14 00:40:43;;;;;;;27.17;20.88;;;;;;;20.27;87.31;100299.59;5063360;28;20513;-67
2021/07/14 00:43:08;;;;;;;25.42;20.23;;;;;;;20.27;87.62;100295.16;5063388;28;20024;-68
2021/07/14 00:45:34;;;;;;;26.55;21.35;;;;;;;20.28;87.78;100302.16;5063294;28;20028;-66
2021/07/14 00:48:01;;;;;;;23.10;20.05;;;;;;;20.28;88.04;100296.88;5063069;28;20101;-68
2021/07/14 00:50:27;;;;;;;24.08;19.42;;;;;;;20.29;88.18;100297.72;5063338;28;20056;-67
2021/07/14 00:52:53;;;;;;;23.92;20.60;;;;;;;20.27;88.05;100281.97;5062966;28;20102;-68
2021/07/14 00:55:18;;;;;;;30.17;21.60;;;;;;;20.30;88.02;100279.19;5063158;28;20404;-68
2021/07/14 00:57:44;;;;;;;24.00;19.63;;;;;;;20.37;88.33;100292.03;5062743;28;20049;-68
2021/07/14 01:00:11;;;;;;;28.65;21.52;;;;;;;20.39;88.13;100292.81;5063037;28;20091;-68
2021/07/14 01:02:37;;;;;;;25.63;21.30;;;;;;;20.41;88.16;100293.59;5062939;28;20035;-68
2021/07/14 01:05:09;;;;;;;24.73;20.58;;;;;;;20.42;88.27;100297.94;5062986;28;20081;-68
2021/07/14 01:07:54;;;;;;;23.02;20.63;;;;;;;20.46;88.57;100290.72;5062649;28;20127;-69
2021/07/14 01:10:24;;;;;;;22.58;19.73;;;;;;;20.48;88.38;100283.59;5062802;28;20021;-68
2021/07/14 01:13:09;;;;;;;22.98;20.45;;;;;;;20.49;88.45;100278.25;5063034;28;20074;-68
2021/07/14 01:15:46;;;;;;;22.92;20.35;;;;;;;20.49;88.39;100285.28;5063186;28;20437;-69
2021/07/14 01:18:34;;;;;;;24.85;20.90;;;;;;;20.48;88.11;100275.69;5062947;28;20040;-69
2021/07/14 01:21:06;;;;;;;24.33;21.83;;;;;;;20.49;88.24;100275.59;5063149;28;20155;-69
2021/07/14 01:23:44;;;;;;;24.25;21.17;;;;;;;20.44;87.99;100267.09;5062971;28;20037;-69
2021/07/14 01:26:27;;;;;;;28.80;21.58;;;;;;;20.47;88.41;100269.56;5062909;28;20040;-69
2021/07/14 01:28:55;;;;;;;26.85;22.25;;;;;;;20.43;88.32;100276.75;5062857;28;20021;-69
2021/07/14 01:31:22;;;;;;;25.27;22.27;;;;;;;20.39;88.45;100263.81;5063174;28;20049;-69
2021/07/14 01:33:53;;;;;;;27.30;24.45;;;;;;;20.40;88.78;100273.47;5062724;28;20075;-69
2021/07/14 01:36:19;;;;;;;26.40;22.55;;;;;;;20.40;88.47;100273.47;5061334;28;20384;-69
2021/07/14 01:38:47;;;;;;;25.83;23.10;;;;;;;20.36;89.05;100258.72;5064276;28;20052;-69
2021/07/14 01:41:17;;;;;;;26.67;23.42;;;;;;;20.40;88.73;100263.75;5066549;28;20021;-69
2021/07/14 01:43:53;;;;;;;26.95;23.85;;;;;;;20.42;88.89;100269.78;5066261;28;20093;-69
2021/07/14 01:46:20;;;;;;;27.50;24.50;;;;;;;20.38;88.75;100259.50;5065908;28;20053;-69
2021/07/14 01:48:48;;;;;;;27.17;24.38;;;;;;;20.43;88.76;100262.75;5066041;28;20028;-69
2021/07/14 01:51:14;;;;;;;30.65;24.38;;;;;;;20.43;88.97;100263.59;5066244;28;20028;-70
2021/07/14 01:53:41;;;;;;;27.75;24.85;;;;;;;20.41;88.96;100264.59;5066150;28;20109;-72
2021/07/14 01:56:09;;;;;;;28.17;25.08;;;;;;;20.47;89.05;100268.69;5065997;28;20017;-70
2021/07/14 01:58:37;;;;;;;32.65;26.60;;;;;;;20.43;88.75;100262.75;5066248;28;20024;-70
2021/07/14 02:01:05;;;;;;;28.33;25.30;;;;;;;20.45;88.68;100267.94;5066192;28;20036;-70
2021/07/14 02:06:00;;;;;;;31.17;26.55;;;;;;;20.43;88.71;100273.28;5066016;28;20048;-69
2021/07/14 02:08:30;;;;;;;30.98;27.30;;;;;;;20.42;88.86;100268.94;5065664;28;20028;-70
2021/07/14 02:10:58;;;;;;;29.55;26.08;;;;;;;20.46;88.54;100273.13;5065763;28;20029;-70
2021/07/14 02:13:26;;;;;;;33.28;28.42;;;;;;;20.46;88.50;100274.91;5065674;28;20064;-70
2021/07/14 02:15:55;;;;;;;32.80;27.98;;;;;;;20.44;88.33;100272.34;5065731;28;20049;-70
2021/07/14 02:18:24;;;;;;;32.20;28.20;;;;;;;20.47;88.49;100266.06;5065553;28;20025;-70
2021/07/14 02:20:51;;;;;;;31.60;28.20;;;;;;;20.45;88.40;100263.50;5064135;28;20101;-69
2021/07/14 02:23:16;;;;;;;32.08;28.25;;;;;;;20.43;88.47;100263.59;5065778;28;20516;-69
2021/07/14 02:25:42;;;;;;;30.90;27.65;;;;;;;20.46;88.73;100270.50;5065684;28;20040;-69
2021/07/14 02:28:07;;;;;;;32.80;26.92;;;;;;;20.49;88.33;100262.44;5064104;28;20017;-69
2021/07/14 02:30:32;;;;;;;33.47;28.55;;;;;;;20.49;88.54;100257.16;5065873;28;20024;-69
2021/07/14 02:33:04;;;;;;;32.50;28.10;;;;;;;20.48;88.47;100255.44;5065453;28;20485;-69
2021/07/14 02:35:33;;;;;;;29.67;26.48;;;;;;;20.48;88.59;100258.06;5065465;28;20462;-69
2021/07/14 02:38:02;;;;;;;31.42;27.70;;;;;;;20.48;88.49;100251.97;5065043;28;20048;-69
2021/07/14 02:40:41;;;;;;;31.88;26.98;;;;;;;20.52;88.10;100250.84;5065165;28;20029;-69
2021/07/14 02:43:09;;;;;;;30.48;26.80;;;;;;;20.52;88.10;100251.72;5063737;28;20017;-69
2021/07/14 02:45:42;;;;;;;32.85;28.13;;;;;;;20.52;88.13;100246.44;5064883;28;20108;-69
2021/07/14 02:48:08;;;;;;;34.13;28.15;;;;;;;20.51;88.47;100241.25;5064760;28;20024;-70
2021/07/14 02:50:35;;;;;;;31.52;28.17;;;;;;;20.52;88.35;100249.06;5063860;28;20094;-69
2021/07/14 02:53:07;;;;;;;32.10;28.13;;;;;;;20.51;88.23;100236.81;5064623;28;20053;-69
2021/07/14 02:55:36;;;;;;;31.33;27.77;;;;;;;20.54;88.01;100235.81;5064730;28;20071;-69
2021/07/14 02:58:02;;;;;;;33.05;29.50;;;;;;;20.56;87.92;100234.78;5064738;28;20028;-69
2021/07/14 03:00:30;;;;;;;31.85;27.65;;;;;;;20.61;87.84;100231.03;5065107;28;20024;-70
2021/07/14 03:02:57;;;;;;;28.80;25.70;;;;;;;20.63;88.17;100222.13;5064876;28;20312;-69
2021/07/14 03:05:23;;;;;;;28.48;25.45;;;;;;;20.65;88.01;100219.41;5065042;28;20057;-70
2021/07/14 03:07:50;;;;;;;28.67;24.17;;;;;;;20.73;87.51;100233.03;5064546;28;20013;-69
2021/07/14 03:10:21;;;;;;;29.20;24.92;;;;;;;20.72;87.63;100231.31;5064644;28;20052;-69
2021/07/14 03:12:50;;;;;;;30.63;25.65;;;;;;;20.78;87.79;100225.72;5064706;28;20048;-70
2021/07/14 03:15:16;;;;;;;29.27;26.08;;;;;;;20.81;87.72;100222.91;5064595;28;20031;-69
2021/07/14 03:17:43;;;;;;;30.50;25.30;;;;;;;20.87;87.32;100228.78;5064526;28;20051;-69
2021/07/14 03:20:15;;;;;;;27.65;24.95;;;;;;;20.89;87.03;100216.38;5064473;28;20086;-70
2021/07/14 03:22:43;;;;;;;29.00;25.85;;;;;;;20.89;87.01;100222.50;5064244;28;20021;-69
2021/07/14 03:25:11;;;;;;;28.42;25.48;;;;;;;20.96;87.40;100223.03;5064230;28;20028;-70
2021/07/14 03:27:38;;;;;;;25.83;23.05;;;;;;;21.12;87.42;100224.84;5064118;28;20032;-70
2021/07/14 03:30:05;;;;;;;26.05;22.65;;;;;;;21.33;87.27;100229.81;5064333;28;20054;-70
2021/07/14 03:32:30;;;;;;;27.40;22.80;;;;;;;21.49;87.24;100228.00;5064349;28;20036;-69
2021/07/14 03:34:56;;;;;;;21.92;19.83;;;;;;;21.74;87.55;100237.16;5064188;28;20017;-71
2021/07/14 03:37:22;;;;;;;23.90;21.35;;;;;;;21.94;86.44;100229.03;5064176;28;20092;-70
2021/07/14 03:39:49;;;;;;;21.80;19.70;;;;;;;22.24;86.19;100234.25;5062977;28;20021;-70
2021/07/14 03:42:17;;;;;;;21.75;19.50;;;;;;;22.59;85.62;100229.56;5064046;28;20021;-70
2021/07/14 03:44:48;;;;;;;20.70;18.70;;;;;;;22.84;85.43;100228.03;5064062;28;20051;-70
2021/07/14 03:47:15;;;;;;;20.23;18.33;;;;;;;23.11;83.99;100229.88;5063867;28;20024;-70
2021/07/14 03:49:41;;;;;;;20.42;18.48;;;;;;;23.21;81.93;100220.38;5064019;28;20032;-70
2021/07/14 03:52:09;;;;;;;20.00;17.90;;;;;;;23.31;80.67;100222.44;5063585;28;20020;-70
2021/07/14 03:54:34;;;;;;;21.70;19.40;;;;;;;23.37;79.94;100230.81;5063984;28;20371;-70
2021/07/14 03:57:01;;;;;;;22.60;20.08;;;;;;;23.36;78.22;100210.59;5062070;28;20028;-71
2021/07/14 03:59:30;;;;;;;20.48;18.48;;;;;;;23.31;77.47;100225.94;5063957;28;20044;-70
2021/07/14 04:01:56;;;;;;;23.42;21.23;;;;;;;23.19;77.53;100222.28;5063370;28;20136;-71
2021/07/14 04:04:22;;;;;;;23.00;20.23;;;;;;;23.09;77.31;100221.19;5063508;28;20032;-70
2021/07/14 04:06:53;;;;;;;24.40;20.30;;;;;;;22.98;76.88;100228.03;5063657;28;20078;-70
2021/07/14 04:09:21;;;;;;;20.63;18.60;;;;;;;22.99;77.36;100237.66;5063560;28;20139;-70
2021/07/14 04:11:52;;;;;;;20.35;18.25;;;;;;;23.19;76.98;100235.53;5063735;28;20025;-70
2021/07/14 04:14:17;;;;;;;20.90;18.25;;;;;;;23.47;77.13;100235.53;5063760;28;20025;-70
2021/07/14 04:16:43;;;;;;;19.92;17.92;;;;;;;23.80;76.29;100234.28;5063537;28;20036;-70
2021/07/14 04:19:08;;;;;;;20.15;18.13;;;;;;;24.08;74.52;100228.88;5063530;28;20032;-70
2021/07/14 04:21:33;;;;;;;19.83;18.00;;;;;;;24.25;73.15;100220.63;5063613;28;20033;-70
2021/07/14 04:24:01;;;;;;;19.25;17.52;;;;;;;24.29;72.55;100215.97;5063471;28;20028;-70
2021/07/14 04:26:26;;;;;;;20.48;18.25;;;;;;;24.30;71.84;100232.75;5063455;28;20025;-71
2021/07/14 04:28:53;;;;;;;20.55;18.50;;;;;;;24.11;70.98;100223.34;5063371;28;20114;-71
2021/07/14 04:31:18;;;;;;;20.85;18.83;;;;;;;23.79;71.84;100223.78;5063406;28;20036;-72
2021/07/14 04:33:44;;;;;;;22.75;20.42;;;;;;;23.63;72.42;100222.13;5063484;28;20028;-71
2021/07/14 04:36:10;;;;;;;24.70;21.33;;;;;;;23.50;72.66;100219.44;5063311;28;20025;-72
2021/07/14 04:38:35;;;;;;;24.08;20.13;;;;;;;23.45;72.81;100230.34;5063169;28;20028;-72
2021/07/14 04:41:02;;;;;;;22.05;19.83;;;;;;;23.47;73.08;100224.94;5061802;28;20024;-71
2021/07/14 04:43:28;;;;;;;22.92;20.73;;;;;;;23.59;73.65;100225.94;5063380;28;20032;-71
2021/07/14 04:45:54;;;;;;;22.55;20.25;;;;;;;23.77;72.93;100226.53;5063314;28;20025;-71
2021/07/14 04:48:20;;;;;;;22.98;20.88;;;;;;;23.84;72.22;100232.25;5063258;28;20024;-70
2021/07/14 04:50:45;;;;;;;23.83;21.13;;;;;;;23.84;72.29;100233.09;5063295;28;20048;-70
2021/07/14 04:53:11;;;;;;;20.17;18.33;;;;;;;24.00;72.38;100232.06;5063019;28;20037;-69
2021/07/14 04:55:38;;;;;;;20.23;18.35;;;;;;;24.24;72.01;100226.03;5063316;28;20036;-69
2021/07/14 04:58:03;;;;;;;22.45;19.30;;;;;;;24.53;71.31;100227.63;5063172;28;20115;-69
2021/07/14 05:00:31;;;;;;;20.45;18.35;;;;;;;24.90;70.91;100221.50;5063148;28;20025;-69
2021/07/14 05:02:56;;;;;;;18.95;17.05;;;;;;;25.44;70.42;100227.34;5063010;28;20054;-70
2021/07/14 05:05:22;;;;;;;19.58;17.60;;;;;;;26.14;69.10;100222.13;5063167;28;20067;-69
2021/07/14 05:07:49;;;;;;;19.42;17.27;;;;;;;26.69;65.87;100224.09;5062942;28;20021;-64
2021/07/14 05:10:16;;;;;;;18.63;16.83;;;;;;;27.04;64.94;100222.25;5062858;28;20052;-64
2021/07/14 05:12:42;;;;;;;19.27;17.27;;;;;;;27.71;63.44;100230.13;5063107;28;20031;-64
2021/07/14 05:15:07;;;;;;;19.35;17.48;;;;;;;28.09;60.34;100235.84;5066516;28;20416;-65
2021/07/14 05:17:33;;;;;;;19.48;17.45;;;;;;;28.21;59.45;100214.41;5066655;28;20069;-64
2021/07/14 05:19:59;;;;;;;16.52;14.95;;;;;;;28.63;59.27;100226.81;5066770;28;20036;-65
2021/07/14 05:22:24;;;;;;;17.98;16.35;;;;;;;29.12;57.78;100228.78;5066719;28;20025;-66
2021/07/14 05:24:49;;;;;;;18.38;16.60;;;;;;;29.42;56.04;100235.00;5066801;28;20025;-65
2021/07/14 05:27:15;;;;;;;18.48;16.60;;;;;;;29.41;55.38;100235.97;5066360;28;20104;-66
2021/07/14 05:29:40;;;;;;;18.65;17.02;;;;;;;29.38;55.22;100230.06;5066587;28;20020;-65
2021/07/14 05:32:06;;;;;;;18.35;16.45;;;;;;;29.32;54.40;100235.00;5066493;28;20017;-66
2021/07/14 05:34:32;;;;;;;18.45;16.65;;;;;;;28.94;54.40;100232.09;5066378;28;20025;-65
2021/07/14 05:36:58;;;;;;;20.67;18.77;;;;;;;28.54;55.03;100223.16;5066214;28;20077;-65
2021/07/14 05:39:23;;;;;;;19.90;17.77;;;;;;;28.34;56.20;100227.53;5066430;28;20066;-73
2021/07/14 05:41:49;;;;;;;20.27;18.38;;;;;;;28.41;55.80;100225.19;5066263;28;20024;-71
2021/07/14 05:44:17;;;;;;;19.17;17.38;;;;;;;28.50;55.77;100228.88;5066055;28;20029;-71
2021/07/14 05:46:46;;;;;;;17.88;16.00;;;;;;;28.68;55.50;100229.94;5065819;28;20321;-64
2021/07/14 05:49:12;;;;;;;18.98;17.02;;;;;;;28.79;54.86;100228.97;5065974;28;20541;-64
2021/07/14 05:51:38;;;;;;;18.35;16.60;;;;;;;28.92;54.29;100236.72;5066369;28;20492;-70
2021/07/14 05:54:03;;;;;;;18.05;16.27;;;;;;;29.14;53.98;100236.66;5065845;28;20072;-64
2021/07/14 05:56:29;;;;;;;20.33;17.70;;;;;;;29.32;53.81;100242.16;5066117;28;20013;-72
2021/07/14 05:58:55;;;;;;;18.63;16.45;;;;;;;29.41;53.85;100245.81;5066390;28;20029;-70
2021/07/14 06:01:21;;;;;;;18.05;16.15;;;;;;;29.64;53.70;100242.88;5065868;28;20021;-70
2021/07/14 06:03:50;;;;;;;18.77;16.98;;;;;;;29.92;52.17;100249.16;5065867;28;20025;-69
2021/07/14 06:06:16;;;;;;;21.00;18.10;;;;;;;29.80;51.53;100242.28;5065686;28;20044;-69
2021/07/14 06:08:43;;;;;;;18.05;16.25;;;;;;;29.56;52.59;100231.03;5065706;28;20087;-68
2021/07/14 06:11:09;;;;;;;18.33;16.50;;;;;;;29.72;51.72;100240.34;5065585;28;20465;-68
2021/07/14 06:13:34;;;;;;;17.40;15.70;;;;;;;29.54;52.25;100234.81;5065979;28;20021;-68
2021/07/14 06:16:00;;;;;;;19.48;17.60;;;;;;;29.28;52.19;100246.09;5065742;28;20103;-66
2021/07/14 06:18:25;;;;;;;18.67;16.88;;;;;;;29.10;52.54;100235.25;5065662;28;20040;-68
2021/07/14 06:20:51;;;;;;;19.45;17.42;;;;;;;28.95;53.09;100243.63;5065920;28;20025;-67
2021/07/14 06:23:16;;;;;;;19.33;17.50;;;;;;;29.01;53.21;100240.44;5065820;28;20076;-66
2021/07/14 06:25:41;;;;;;;18.88;17.10;;;;;;;29.14;53.40;100239.34;5065555;28;20390;-66
2021/07/14 06:28:08;;;;;;;19.30;17.33;;;;;;;29.51;52.27;100227.09;5065529;28;20499;-67
2021/07/14 06:30:33;;;;;;;18.98;17.10;;;;;;;29.68;51.43;100218.38;5065481;28;20499;-70
2021/07/14 06:32:59;;;;;;;19.67;16.25;;;;;;;29.92;51.22;100224.25;5065200;28;20076;-69
2021/07/14 06:35:24;;;;;;;18.48;16.52;;;;;;;30.36;50.21;100230.91;5065454;28;20090;-68
2021/07/14 06:37:51;;;;;;;18.30;16.50;;;;;;;30.59;49.80;100234.06;5065569;28;20032;-68
2021/07/14 06:40:17;;;;;;;18.73;16.83;;;;;;;30.72;49.08;100232.84;5065383;28;20036;-69
2021/07/14 06:42:42;;;;;;;18.17;16.33;;;;;;;30.91;48.61;100237.28;5065249;28;20083;-69
2021/07/14 06:45:10;;;;;;;17.17;15.30;;;;;;;30.88;48.96;100230.38;5065418;28;20052;-70
2021/07/14 06:47:37;;;;;;;17.02;15.48;;;;;;;31.16;48.28;100230.34;5065413;28;20059;-68
2021/07/14 06:50:04;;;;;;;18.80;17.05;;;;;;;31.22;47.96;100230.69;5065600;28;20028;-69
2021/07/14 06:52:29;;;;;;;17.67;15.88;;;;;;;31.37;47.92;100236.38;5063969;28;20064;-69
2021/07/14 06:54:54;;;;;;;18.75;15.48;;;;;;;31.87;47.34;100247.53;5066155;28;20025;-68
2021/07/14 06:57:20;;;;;;;17.67;15.90;;;;;;;32.20;45.64;100244.22;5065155;28;20481;-68
2021/07/14 06:59:45;;;;;;;18.08;16.38;;;;;;;32.00;45.33;100242.59;5064951;28;20017;-66
2021/07/14 07:02:11;;;;;;;16.95;15.35;;;;;;;31.79;45.30;100245.63;5065258;28;20032;-68
2021/07/14 07:04:36;;;;;;;16.48;15.07;;;;;;;31.52;46.39;100239.34;5064966;28;20331;-68
2021/07/14 07:07:01;;;;;;;18.05;16.35;;;;;;;31.74;44.96;100243.38;5064800;28;20055;-65
2021/07/14 07:09:28;;;;;;;17.35;15.55;;;;;;;31.72;44.88;100247.25;5064637;28;20124;-64
2021/07/14 07:11:53;;;;;;;17.80;15.95;;;;;;;31.60;44.57;100239.44;5064525;28;20035;-67
2021/07/14 07:14:19;;;;;;;17.13;15.52;;;;;;;31.45;45.42;100241.00;5064526;28;20119;-68
2021/07/14 07:16:44;;;;;;;17.67;15.82;;;;;;;31.52;45.95;100244.72;5064315;28;20084;-66
2021/07/14 07:19:10;;;;;;;18.33;16.70;;;;;;;31.72;44.85;100237.34;5064307;28;20025;-67
2021/07/14 07:21:35;;;;;;;18.65;17.00;;;;;;;31.69;45.62;100236.81;5064252;28;20474;-67
2021/07/14 07:24:01;;;;;;;20.00;18.10;;;;;;;31.46;46.05;100242.66;5064141;28;20021;-67
2021/07/14 07:26:26;;;;;;;18.50;16.70;;;;;;;30.95;46.59;100233.28;5063763;28;20028;-66
2021/07/14 07:28:58;;;;;;;19.25;17.60;;;;;;;30.76;47.67;100239.59;5063762;28;20025;-67
2021/07/14 07:31:27;;;;;;;19.17;17.30;;;;;;;31.11;46.68;100242.50;5064245;28;20021;-68
2021/07/14 07:33:53;;;;;;;18.05;16.25;;;;;;;31.29;46.25;100250.56;5064043;28;20408;-68
2021/07/14 07:36:18;;;;;;;18.55;16.83;;;;;;;31.25;46.27;100250.00;5063581;28;20021;-67
2021/07/14 07:38:44;;;;;;;18.40;16.45;;;;;;;31.16;46.29;100246.41;5064149;28;20017;-67
2021/07/14 07:41:11;;;;;;;17.38;15.88;;;;;;;31.40;45.95;100246.81;5062982;28;20382;-67
2021/07/14 07:43:36;;;;;;;17.70;16.00;;;;;;;31.77;45.23;100251.16;5064120;28;20039;-68
2021/07/14 07:46:03;;;;;;;18.17;15.75;;;;;;;31.85;43.53;100253.06;5064059;28;20020;-67
2021/07/14 07:48:28;;;;;;;16.52;15.02;;;;;;;31.77;43.45;100244.94;5063800;28;20477;-68
2021/07/14 07:50:55;;;;;;;16.70;15.10;;;;;;;32.08;43.06;100243.66;5063890;28;20039;-68
2021/07/14 07:53:22;;;;;;;17.88;16.20;;;;;;;32.21;42.60;100235.16;5063617;28;20072;-68
2021/07/14 07:55:49;;;;;;;16.63;15.10;;;;;;;32.63;42.79;100228.16;5063680;28;20087;-68
2021/07/14 07:58:15;;;;;;;17.70;15.95;;;;;;;33.40;40.85;100231.69;5063481;28;20036;-67
2021/07/14 08:00:41;;;;;;;18.83;17.02;;;;;;;33.50;40.16;100221.56;5063643;28;20075;-67
2021/07/14 08:03:07;;;;;;;17.90;16.13;;;;;;;33.49;39.46;100233.34;5063831;28;20055;-68
2021/07/14 08:05:33;;;;;;;17.38;15.30;;;;;;;33.52;39.42;100232.16;5063526;28;20020;-67
2021/07/14 08:07:58;;;;;;;17.88;16.27;;;;;;;33.88;39.67;100234.50;5063535;28;20029;-68
2021/07/14 08:10:24;;;;;;;17.67;16.00;;;;;;;34.32;39.28;100234.25;5063595;28;20040;-67
2021/07/14 08:12:49;;;;;;;19.20;17.35;;;;;;;34.30;38.88;100236.28;5063500;28;20028;-68
2021/07/14 08:15:15;;;;;;;18.23;16.63;;;;;;;34.48;38.46;100242.28;5063698;28;20377;-67
2021/07/14 08:17:40;;;;;;;17.33;15.73;;;;;;;34.40;38.28;100244.16;5063591;28;20021;-68
2021/07/14 08:20:08;;;;;;;15.00;13.68;;;;;;;34.19;37.73;100237.47;5063493;28;20088;-68
2021/07/14 08:22:34;;;;;;;15.40;13.98;;;;;;;33.88;37.14;100236.38;5063694;28;20068;-68
2021/07/14 08:25:00;;;;;;;15.85;14.45;;;;;;;33.85;37.58;100245.63;5063542;28;20029;-67
2021/07/14 08:27:26;;;;;;;14.68;13.32;;;;;;;33.80;36.72;100239.06;5063302;28;20029;-68
2021/07/14 08:29:54;;;;;;;13.40;12.10;;;;;;;33.29;35.98;100238.25;5063385;28;20090;-68
2021/07/14 08:32:19;;;;;;;14.00;12.73;;;;;;;32.82;36.28;100237.78;5063112;28;20048;-68
2021/07/14 08:34:45;;;;;;;15.30;13.73;;;;;;;32.33;37.81;100241.09;5063296;28;20051;-68
2021/07/14 08:37:10;;;;;;;14.68;13.18;;;;;;;32.31;38.64;100243.94;5063304;28;20033;-68
2021/07/14 08:39:35;;;;;;;13.90;12.60;;;;;;;32.91;38.09;100235.13;5062998;28;20025;-68
2021/07/14 08:42:02;;;;;;;18.33;14.30;;;;;;;33.21;36.42;100244.44;5062969;28;20024;-67
2021/07/14 08:44:28;;;;;;;15.45;13.95;;;;;;;33.20;36.41;100234.69;5063209;28;20087;-69
2021/07/14 08:46:54;;;;;;;15.63;14.05;;;;;;;33.51;36.88;100231.34;5063819;28;20037;-68
2021/07/14 08:49:20;;;;;;;14.43;13.10;;;;;;;34.05;36.51;100230.94;5067326;28;20013;-68
2021/07/14 08:51:46;;;;;;;16.48;14.85;;;;;;;34.44;35.13;100235.56;5067680;28;20032;-68
2021/07/14 08:54:12;;;;;;;16.45;14.95;;;;;;;34.46;35.29;100228.13;5067034;28;20056;-67
2021/07/14 08:56:37;;;;;;;15.90;14.40;;;;;;;34.84;34.99;100223.94;5067114;28;20113;-68
2021/07/14 08:59:03;;;;;;;15.10;13.82;;;;;;;35.50;34.28;100217.19;5065705;28;20087;-67
2021/07/14 09:01:29;;;;;;;15.52;14.10;;;;;;;36.00;33.73;100226.69;5065714;28;20117;-67
2021/07/14 09:03:55;;;;;;;16.00;14.15;;;;;;;36.43;31.97;100223.34;5066993;28;20107;-67
2021/07/14 09:06:20;;;;;;;16.30;14.70;;;;;;;36.18;31.86;100212.81;5066789;28;20040;-67
2021/07/14 09:08:46;;;;;;;16.95;15.32;;;;;;;36.33;32.00;100210.97;5066798;28;20025;-67
2021/07/14 09:11:12;;;;;;;17.55;16.08;;;;;;;36.00;32.46;100208.63;5067032;28;20052;-68
2021/07/14 09:13:40;;;;;;;16.95;15.27;;;;;;;36.06;32.72;100201.63;5067032;28;20025;-67
2021/07/14 09:16:06;;;;;;;17.40;15.73;;;;;;;36.33;32.43;100208.25;5067119;28;20041;-68
2021/07/14 09:18:32;;;;;;;18.38;14.93;;;;;;;36.50;32.65;100205.34;5066885;28;20036;-67
2021/07/14 09:20:58;;;;;;;16.73;15.32;;;;;;;36.75;32.34;100196.91;5066715;28;20089;-68
2021/07/14 09:23:29;;;;;;;16.83;15.02;;;;;;;36.57;32.54;100208.97;5066753;28;20071;-67
2021/07/14 09:26:04;;;;;;;17.88;16.27;;;;;;;36.61;31.82;100197.75;5066716;28;20025;-68
2021/07/14 09:28:35;;;;;;;16.73;15.15;;;;;;;36.57;32.83;100200.84;5066400;28;20029;-68
2021/07/14 09:31:06;;;;;;;16.85;15.25;;;;;;;37.04;31.63;100200.53;5066715;28;20016;-67
2021/07/14 09:33:32;;;;;;;16.75;15.43;;;;;;;37.12;30.89;100190.59;5066413;28;20033;-68
2021/07/14 09:35:59;;;;;;;17.92;16.33;;;;;;;37.08;31.43;100190.13;5066452;28;20028;-68
2021/07/14 09:38:41;;;;;;;17.58;16.05;;;;;;;37.37;30.96;100192.94;5066328;28;20027;-68
2021/07/14 09:41:14;;;;;;;16.00;14.45;;;;;;;37.84;30.70;100195.13;5066377;28;20029;-68
2021/07/14 09:43:44;;;;;;;17.00;15.20;;;;;;;37.87;30.03;100192.03;5066575;28;19916;-67
2021/07/14 09:46:10;;;;;;;15.73;14.18;;;;;;;37.88;30.90;100196.41;5066792;28;20070;-68
2021/07/14 09:48:50;;;;;;;15.77;14.32;;;;;;;38.43;30.09;100201.06;5066150;28;20025;-68
2021/07/14 09:51:22;;;;;;;15.80;14.48;;;;;;;38.99;29.30;100204.56;5066087;28;20564;-67
2021/07/14 09:53:52;;;;;;;11.85;10.82;;;;;;;39.43;26.83;100190.56;5065775;28;20394;-68
2021/07/14 09:56:23;;;;;;;14.00;12.63;;;;;;;39.83;27.18;100191.59;5065985;28;20021;-68
2021/07/14 09:59:05;;;;;;;15.32;13.82;;;;;;;40.05;27.14;100194.06;5065375;28;20028;-67
2021/07/14 10:01:50;;;;;;;15.30;13.70;;;;;;;39.61;28.02;100189.13;5064823;28;20021;-67
2021/07/14 10:04:29;;;;;;;15.57;14.18;;;;;;;38.99;28.66;100190.97;5065748;28;20039;-67
2021/07/14 10:07:11;;;;;;;16.23;14.65;;;;;;;39.05;28.81;100187.44;5066080;28;20021;-67
2021/07/14 10:09:37;;;;;;;16.25;14.70;;;;;;;39.17;28.49;100190.38;5065869;28;20342;-67
2021/07/14 10:12:24;;;;;;;15.13;13.73;;;;;;;39.11;28.51;100191.19;5065920;28;20025;-67
2021/07/14 10:14:50;;;;;;;15.27;13.88;;;;;;;39.26;28.41;100188.31;5065939;28;20029;-68
2021/07/14 10:17:41;;;;;;;15.38;13.90;;;;;;;39.52;28.43;100191.19;5065809;28;20084;-67
2021/07/14 10:20:21;;;;;;;16.92;15.23;;;;;;;39.65;28.43;100190.38;5065693;28;20527;-67
2021/07/14 10:22:54;;;;;;;15.50;14.20;;;;;;;39.78;28.49;100190.34;5065738;28;20112;-67
2021/07/14 10:25:22;;;;;;;16.73;15.10;;;;;;;39.78;28.35;100201.19;5065810;28;20021;-68
2021/07/14 10:27:49;;;;;;;16.30;14.90;;;;;;;39.08;29.00;100197.03;5065304;28;20047;-67
2021/07/14 10:30:16;;;;;;;17.17;15.60;;;;;;;38.11;29.74;100201.53;5065604;28;20025;-67
2021/07/14 10:32:42;;;;;;;18.60;16.40;;;;;;;37.61;31.17;100199.75;5065129;28;20021;-67
2021/07/14 10:35:14;;;;;;;16.58;15.15;;;;;;;37.49;31.53;100201.34;5065504;28;20056;-67
2021/07/14 10:37:43;;;;;;;17.98;16.25;;;;;;;37.90;30.42;100197.88;5065289;28;20494;-67
2021/07/14 10:40:10;;;;;;;17.10;15.20;;;;;;;37.90;30.55;100191.63;5065474;28;20029;-67
2021/07/14 10:42:36;;;;;;;19.52;17.83;;;;;;;38.02;30.15;100195.44;5065319;28;20037;-67
2021/07/14 10:45:03;;;;;;;17.02;15.48;;;;;;;38.13;30.54;100190.50;5065546;28;20024;-68
2021/07/14 10:47:29;;;;;;;17.25;15.63;;;;;;;38.12;29.95;100194.25;5065266;28;20027;-67
2021/07/14 10:49:56;;;;;;;17.80;16.30;;;;;;;37.60;30.38;100194.53;5063665;28;20092;-67
2021/07/14 10:52:23;;;;;;;16.85;15.45;;;;;;;37.07;31.61;100186.63;5065103;28;20088;-67
2021/07/14 10:54:51;;;;;;;17.33;14.93;;;;;;;37.43;31.63;100190.25;5063752;28;20033;-66
2021/07/14 10:57:19;;;;;;;17.17;15.48;;;;;;;37.97;30.41;100187.09;5064707;28;20037;-67
2021/07/14 10:59:46;;;;;;;16.42;14.93;;;;;;;37.93;30.17;100191.22;5064868;28;20487;-67
2021/07/14 11:02:15;;;;;;;16.83;15.38;;;;;;;37.74;30.84;100185.50;5064939;28;20043;-66
2021/07/14 11:04:44;;;;;;;17.60;15.98;;;;;;;37.52;31.54;100190.09;5064958;28;20021;-67
2021/07/14 11:07:09;;;;;;;17.45;16.05;;;;;;;37.16;31.54;100183.78;5065074;28;20406;-67
2021/07/14 11:09:47;;;;;;;17.17;15.73;;;;;;;36.41;32.42;100188.41;5064975;28;20051;-67
2021/07/14 11:12:37;;;;;;;18.75;16.95;;;;;;;35.72;33.28;100187.69;5063908;28;20036;-67
2021/07/14 11:15:04;;;;;;;18.23;16.65;;;;;;;35.34;33.97;100192.06;5064733;28;20060;-67
2021/07/14 11:17:35;;;;;;;19.58;17.73;;;;;;;34.81;34.74;100187.38;5063131;28;20089;-67
2021/07/14 11:20:11;;;;;;;18.65;16.92;;;;;;;34.55;35.44;100180.44;5064525;28;20028;-67
2021/07/14 11:22:52;;;;;;;18.20;16.50;;;;;;;34.21;36.18;100186.97;5064093;28;20059;-67